sensor_id;sensor_type;location;lat;lon;timestamp;P1;durP1;ratioP1;P2;durP2;ratioP2
928;SDS011;451;47.988;7.842;2024-03-06T00:01:10;1.13;;;1.10;;
928;SDS011;451;47.988;7.842;2024-03-06T00:10:13;2.03;;;1.87;;
928;SDS011;451;47.988;7.842;2024-03-06T00:19:18;1.70;;;1.60;;
928;SDS011;451;47.988;7.842;2024-03-06T00:28:22;2.53;;;1.87;;
928;SDS011;451;47.988;7.842;2024-03-06T00:37:27;1.90;;;1.80;;
928;SDS011;451;47.988;7.842;2024-03-06T00:46:31;1.60;;;1.50;;
928;SDS011;451;47.988;7.842;2024-03-06T00:55:36;1.33;;;1.20;;
928;SDS011;451;47.988;7.842;2024-03-06T01:04:40;1.60;;;1.50;;
928;SDS011;451;47.988;7.842;2024-03-06T01:13:45;2.03;;;1.60;;
928;SDS011;451;47.988;7.842;2024-03-06T01:22:48;1.50;;;1.40;;
928;SDS011;451;47.988;7.842;2024-03-06T01:31:52;1.80;;;1.70;;
928;SDS011;451;47.988;7.842;2024-03-06T01:40:55;1.60;;;1.50;;
928;SDS011;451;47.988;7.842;2024-03-06T01:50:00;3.63;;;1.73;;
928;SDS011;451;47.988;7.842;2024-03-06T01:59:04;2.03;;;1.63;;
928;SDS011;451;47.988;7.842;2024-03-06T02:08:09;2.13;;;1.90;;
928;SDS011;451;47.988;7.842;2024-03-06T02:17:12;2.00;;;1.90;;
928;SDS011;451;47.988;7.842;2024-03-06T02:26:16;1.73;;;1.63;;
928;SDS011;451;47.988;7.842;2024-03-06T02:35:20;2.30;;;1.93;;
928;SDS011;451;47.988;7.842;2024-03-06T02:44:24;2.63;;;2.43;;
928;SDS011;451;47.988;7.842;2024-03-06T02:53:27;2.23;;;2.10;;
928;SDS011;451;47.988;7.842;2024-03-06T03:02:32;4.37;;;2.40;;
928;SDS011;451;47.988;7.842;2024-03-06T03:11:35;2.67;;;2.47;;
928;SDS011;451;47.988;7.842;2024-03-06T03:20:39;2.13;;;2.00;;
928;SDS011;451;47.988;7.842;2024-03-06T03:29:43;2.50;;;2.30;;
928;SDS011;451;47.988;7.842;2024-03-06T03:38:48;2.20;;;2.10;;
928;SDS011;451;47.988;7.842;2024-03-06T03:47:51;2.70;;;2.20;;
928;SDS011;451;47.988;7.842;2024-03-06T03:56:56;2.50;;;2.13;;
928;SDS011;451;47.988;7.842;2024-03-06T04:06:00;3.80;;;2.77;;
928;SDS011;451;47.988;7.842;2024-03-06T04:15:05;1.90;;;1.80;;
928;SDS011;451;47.988;7.842;2024-03-06T04:24:09;2.00;;;1.63;;
928;SDS011;451;47.988;7.842;2024-03-06T04:33:14;1.87;;;1.77;;
928;SDS011;451;47.988;7.842;2024-03-06T04:42:17;1.20;;;1.10;;
928;SDS011;451;47.988;7.842;2024-03-06T04:51:22;1.43;;;1.33;;
928;SDS011;451;47.988;7.842;2024-03-06T05:00:26;2.27;;;1.53;;
928;SDS011;451;47.988;7.842;2024-03-06T05:09:32;1.73;;;1.17;;
928;SDS011;451;47.988;7.842;2024-03-06T05:18:36;4.20;;;1.87;;
928;SDS011;451;47.988;7.842;2024-03-06T05:27:41;1.40;;;1.30;;
928;SDS011;451;47.988;7.842;2024-03-06T05:36:44;1.53;;;1.43;;
928;SDS011;451;47.988;7.842;2024-03-06T05:45:50;1.27;;;1.00;;
928;SDS011;451;47.988;7.842;2024-03-06T05:54:54;1.50;;;1.40;;
928;SDS011;451;47.988;7.842;2024-03-06T06:04:00;1.20;;;1.10;;
928;SDS011;451;47.988;7.842;2024-03-06T06:13:04;1.40;;;1.30;;
928;SDS011;451;47.988;7.842;2024-03-06T06:22:09;1.70;;;1.10;;
928;SDS011;451;47.988;7.842;2024-03-06T06:31:13;2.03;;;1.50;;
928;SDS011;451;47.988;7.842;2024-03-06T06:40:18;2.50;;;1.90;;
928;SDS011;451;47.988;7.842;2024-03-06T06:49:21;1.57;;;1.47;;
928;SDS011;451;47.988;7.842;2024-03-06T06:58:27;1.40;;;1.30;;
928;SDS011;451;47.988;7.842;2024-03-06T07:07:30;2.90;;;2.40;;
928;SDS011;451;47.988;7.842;2024-03-06T07:16:35;2.67;;;2.27;;
928;SDS011;451;47.988;7.842;2024-03-06T07:25:47;1.70;;;1.60;;
928;SDS011;451;47.988;7.842;2024-03-06T07:34:55;2.13;;;1.40;;
928;SDS011;451;47.988;7.842;2024-03-06T07:44:00;1.60;;;1.50;;
928;SDS011;451;47.988;7.842;2024-03-06T07:53:06;2.30;;;1.40;;
928;SDS011;451;47.988;7.842;2024-03-06T08:02:12;1.50;;;1.40;;
928;SDS011;451;47.988;7.842;2024-03-06T08:11:17;1.07;;;0.97;;
928;SDS011;451;47.988;7.842;2024-03-06T08:20:20;1.13;;;1.03;;
928;SDS011;451;47.988;7.842;2024-03-06T08:29:25;1.10;;;1.10;;
928;SDS011;451;47.988;7.842;2024-03-06T08:38:29;4.03;;;1.87;;
928;SDS011;451;47.988;7.842;2024-03-06T08:47:34;1.50;;;1.00;;
928;SDS011;451;47.988;7.842;2024-03-06T08:56:38;0.87;;;0.87;;
928;SDS011;451;47.988;7.842;2024-03-06T09:05:43;2.30;;;1.40;;
928;SDS011;451;47.988;7.842;2024-03-06T09:14:47;1.60;;;1.50;;
928;SDS011;451;47.988;7.842;2024-03-06T09:23:52;1.50;;;1.40;;
928;SDS011;451;47.988;7.842;2024-03-06T09:32:56;1.53;;;1.43;;
928;SDS011;451;47.988;7.842;2024-03-06T09:42:02;1.10;;;1.10;;
928;SDS011;451;47.988;7.842;2024-03-06T09:51:12;0.97;;;0.97;;
928;SDS011;451;47.988;7.842;2024-03-06T10:00:20;2.97;;;1.53;;
928;SDS011;451;47.988;7.842;2024-03-06T10:09:26;1.37;;;1.27;;
928;SDS011;451;47.988;7.842;2024-03-06T10:18:37;2.47;;;1.83;;
928;SDS011;451;47.988;7.842;2024-03-06T10:27:41;1.03;;;1.03;;
928;SDS011;451;47.988;7.842;2024-03-06T10:36:51;1.83;;;1.73;;
928;SDS011;451;47.988;7.842;2024-03-06T10:45:58;2.17;;;2.03;;
928;SDS011;451;47.988;7.842;2024-03-06T10:55:08;1.10;;;1.00;;
928;SDS011;451;47.988;7.842;2024-03-06T11:04:12;1.03;;;1.00;;
928;SDS011;451;47.988;7.842;2024-03-06T11:13:22;0.90;;;0.90;;
928;SDS011;451;47.988;7.842;2024-03-06T11:32:15;1.50;;;1.27;;
928;SDS011;451;47.988;7.842;2024-03-06T11:41:20;1.17;;;1.07;;
928;SDS011;451;47.988;7.842;2024-03-06T11:50:28;1.23;;;1.20;;
928;SDS011;451;47.988;7.842;2024-03-06T11:59:33;1.23;;;0.97;;
928;SDS011;451;47.988;7.842;2024-03-06T12:08:41;1.27;;;1.17;;
928;SDS011;451;47.988;7.842;2024-03-06T12:17:45;1.13;;;1.00;;
928;SDS011;451;47.988;7.842;2024-03-06T12:26:59;1.47;;;1.10;;
928;SDS011;451;47.988;7.842;2024-03-06T12:36:06;2.07;;;0.80;;
928;SDS011;451;47.988;7.842;2024-03-06T12:45:15;1.63;;;1.50;;
928;SDS011;451;47.988;7.842;2024-03-06T12:54:23;1.27;;;1.17;;
928;SDS011;451;47.988;7.842;2024-03-06T13:03:29;0.97;;;0.90;;
928;SDS011;451;47.988;7.842;2024-03-06T13:12:35;2.53;;;1.33;;
928;SDS011;451;47.988;7.842;2024-03-06T13:21:43;0.80;;;0.80;;
928;SDS011;451;47.988;7.842;2024-03-06T13:30:46;1.73;;;1.17;;
928;SDS011;451;47.988;7.842;2024-03-06T13:39:51;1.10;;;1.00;;
928;SDS011;451;47.988;7.842;2024-03-06T13:48:59;2.07;;;1.30;;
928;SDS011;451;47.988;7.842;2024-03-06T13:58:05;2.80;;;1.40;;
928;SDS011;451;47.988;7.842;2024-03-06T14:07:12;1.50;;;1.40;;
928;SDS011;451;47.988;7.842;2024-03-06T14:16:18;2.63;;;2.10;;
928;SDS011;451;47.988;7.842;2024-03-06T14:25:22;2.60;;;1.70;;
928;SDS011;451;47.988;7.842;2024-03-06T14:34:27;4.03;;;1.60;;
928;SDS011;451;47.988;7.842;2024-03-06T14:43:34;1.27;;;1.17;;
928;SDS011;451;47.988;7.842;2024-03-06T14:52:41;3.07;;;1.93;;
928;SDS011;451;47.988;7.842;2024-03-06T15:01:48;1.40;;;1.30;;
928;SDS011;451;47.988;7.842;2024-03-06T15:10:54;3.17;;;1.67;;
928;SDS011;451;47.988;7.842;2024-03-06T15:19:59;1.67;;;1.57;;
928;SDS011;451;47.988;7.842;2024-03-06T15:29:04;1.43;;;1.33;;
928;SDS011;451;47.988;7.842;2024-03-06T15:38:08;1.43;;;1.30;;
928;SDS011;451;47.988;7.842;2024-03-06T15:47:17;2.90;;;1.20;;
928;SDS011;451;47.988;7.842;2024-03-06T15:56:22;2.33;;;2.13;;
928;SDS011;451;47.988;7.842;2024-03-06T16:05:27;1.50;;;1.40;;
928;SDS011;451;47.988;7.842;2024-03-06T16:14:31;1.83;;;1.33;;
928;SDS011;451;47.988;7.842;2024-03-06T16:23:36;1.93;;;1.83;;
928;SDS011;451;47.988;7.842;2024-03-06T16:32:39;3.43;;;2.47;;
928;SDS011;451;47.988;7.842;2024-03-06T16:41:44;2.57;;;1.83;;
928;SDS011;451;47.988;7.842;2024-03-06T16:50:48;2.23;;;2.03;;
928;SDS011;451;47.988;7.842;2024-03-06T16:59:52;3.57;;;1.47;;
928;SDS011;451;47.988;7.842;2024-03-06T17:08:58;12.60;;;5.03;;
928;SDS011;451;47.988;7.842;2024-03-06T17:18:03;5.07;;;3.70;;
928;SDS011;451;47.988;7.842;2024-03-06T17:27:06;4.50;;;4.10;;
928;SDS011;451;47.988;7.842;2024-03-06T17:36:11;3.13;;;2.87;;
928;SDS011;451;47.988;7.842;2024-03-06T17:45:16;2.83;;;2.13;;
928;SDS011;451;47.988;7.842;2024-03-06T17:54:20;4.00;;;3.70;;
928;SDS011;451;47.988;7.842;2024-03-06T18:03:24;3.13;;;2.83;;
928;SDS011;451;47.988;7.842;2024-03-06T18:12:29;3.33;;;3.03;;
928;SDS011;451;47.988;7.842;2024-03-06T18:21:33;3.37;;;3.17;;
928;SDS011;451;47.988;7.842;2024-03-06T18:30:39;4.53;;;3.23;;
928;SDS011;451;47.988;7.842;2024-03-06T18:39:42;5.93;;;3.90;;
928;SDS011;451;47.988;7.842;2024-03-06T18:48:50;4.03;;;2.90;;
928;SDS011;451;47.988;7.842;2024-03-06T18:57:54;4.40;;;2.90;;
928;SDS011;451;47.988;7.842;2024-03-06T19:06:59;6.80;;;3.10;;
928;SDS011;451;47.988;7.842;2024-03-06T19:16:03;4.00;;;3.60;;
928;SDS011;451;47.988;7.842;2024-03-06T19:25:11;7.20;;;4.83;;
928;SDS011;451;47.988;7.842;2024-03-06T19:34:15;5.33;;;2.90;;
928;SDS011;451;47.988;7.842;2024-03-06T19:43:21;3.50;;;3.10;;
928;SDS011;451;47.988;7.842;2024-03-06T19:52:26;4.57;;;4.27;;
928;SDS011;451;47.988;7.842;2024-03-06T20:01:31;5.00;;;4.53;;
928;SDS011;451;47.988;7.842;2024-03-06T20:10:35;4.73;;;4.00;;
928;SDS011;451;47.988;7.842;2024-03-06T20:19:42;3.47;;;3.03;;
928;SDS011;451;47.988;7.842;2024-03-06T20:28:47;5.03;;;3.47;;
928;SDS011;451;47.988;7.842;2024-03-06T20:37:54;4.23;;;3.77;;
928;SDS011;451;47.988;7.842;2024-03-06T20:46:58;3.37;;;3.10;;
928;SDS011;451;47.988;7.842;2024-03-06T20:56:06;5.03;;;3.87;;
928;SDS011;451;47.988;7.842;2024-03-06T21:05:13;3.80;;;3.27;;
928;SDS011;451;47.988;7.842;2024-03-06T21:14:18;4.60;;;3.23;;
928;SDS011;451;47.988;7.842;2024-03-06T21:23:23;3.70;;;3.50;;
928;SDS011;451;47.988;7.842;2024-03-06T21:32:30;3.13;;;2.83;;
928;SDS011;451;47.988;7.842;2024-03-06T21:41:33;4.90;;;3.60;;
928;SDS011;451;47.988;7.842;2024-03-06T21:50:39;5.60;;;3.33;;
928;SDS011;451;47.988;7.842;2024-03-06T21:59:42;3.60;;;3.00;;
928;SDS011;451;47.988;7.842;2024-03-06T22:08:46;2.80;;;2.60;;
928;SDS011;451;47.988;7.842;2024-03-06T22:17:49;6.00;;;3.60;;
928;SDS011;451;47.988;7.842;2024-03-06T22:26:55;3.53;;;3.10;;
928;SDS011;451;47.988;7.842;2024-03-06T22:35:58;7.10;;;3.93;;
928;SDS011;451;47.988;7.842;2024-03-06T22:45:03;3.17;;;2.77;;
928;SDS011;451;47.988;7.842;2024-03-06T22:54:06;5.87;;;3.80;;
928;SDS011;451;47.988;7.842;2024-03-06T23:03:11;4.80;;;3.30;;
928;SDS011;451;47.988;7.842;2024-03-06T23:12:14;4.47;;;2.87;;
928;SDS011;451;47.988;7.842;2024-03-06T23:21:20;5.37;;;3.67;;
928;SDS011;451;47.988;7.842;2024-03-06T23:30:24;3.83;;;3.47;;
928;SDS011;451;47.988;7.842;2024-03-06T23:39:30;3.57;;;2.70;;
928;SDS011;451;47.988;7.842;2024-03-06T23:48:34;2.57;;;2.37;;
928;SDS011;451;47.988;7.842;2024-03-06T23:57:39;4.33;;;3.70;;
